Time;durP1;ratioP1;P1;durP2;ratioP2;P2;SDS_P1;SDS_P2;PMS_P1;PMS_P2;Temp;Humidity;BMP_temperature;BMP_pressure;BME280_temperature;BME280_humidity;BME280_pressure;Samples;Min_cycle;Max_cycle;Signal;HPM_P1;HPM_P2
2024/01/22 00:02:13;;;;;;;12.35;7.60;;;7.30;99.90;;;;;;5074296;28;20491;-68
2024/01/22 00:04:39;;;;;;;12.20;7.35;;;7.40;99.90;;;;;;5071454;28;20491;-69
2024/01/22 00:07:04;;;;;;;9.38;6.63;;;7.40;99.90;;;;;;5068565;28;20474;-69
2024/01/22 00:09:30;;;;;;;10.18;6.55;;;7.40;99.90;;;;;;5068820;28;20044;-68
2024/01/22 00:11:56;;;;;;;10.40;7.05;;;7.40;99.90;;;;;;5072933;28;20866;-68
2024/01/22 00:14:22;;;;;;;10.63;7.07;;;7.40;99.90;;;;;;5067956;28;20044;-69
2024/01/22 00:16:48;;;;;;;11.25;7.28;;;7.40;99.90;;;;;;5056304;28;20146;-69
2024/01/22 00:19:14;;;;;;;11.55;7.05;;;7.40;99.90;;;;;;5065305;28;20112;-69
2024/01/22 00:21:43;;;;;;;10.60;7.35;;;7.50;99.90;;;;;;5062803;28;20060;-70
2024/01/22 00:24:09;;;;;;;10.73;6.80;;;7.50;99.90;;;;;;5068080;28;20123;-69
2024/01/22 00:26:35;;;;;;;10.82;6.95;;;7.50;99.90;;;;;;5054075;28;20040;-68
2024/01/22 00:29:01;;;;;;;9.32;6.45;;;7.50;99.90;;;;;;5058493;28;20161;-68
2024/01/22 00:31:26;;;;;;;12.20;7.28;;;7.60;99.90;;;;;;5062931;28;20056;-69
2024/01/22 00:33:52;;;;;;;12.05;6.93;;;7.60;99.90;;;;;;5066303;28;20501;-69
2024/01/22 00:36:18;;;;;;;9.50;6.85;;;7.60;99.90;;;;;;5067468;28;20040;-69
2024/01/22 00:38:45;;;;;;;10.25;6.32;;;7.60;99.90;;;;;;5071053;28;20044;-69
2024/01/22 00:41:11;;;;;;;10.15;6.30;;;7.60;99.90;;;;;;5073850;28;20100;-69
2024/01/22 00:43:37;;;;;;;10.73;7.18;;;7.60;99.90;;;;;;5055608;28;20048;-69
2024/01/22 00:46:03;;;;;;;11.73;6.60;;;7.60;99.90;;;;;;5067942;28;20505;-68
2024/01/22 00:48:29;;;;;;;9.07;6.22;;;7.60;99.90;;;;;;5067287;28;20306;-68
2024/01/22 00:50:55;;;;;;;9.10;6.28;;;7.60;99.90;;;;;;5050793;28;20055;-68
2024/01/22 00:53:21;;;;;;;9.07;6.20;;;7.70;99.90;;;;;;5068240;28;20048;-68
2024/01/22 00:55:47;;;;;;;12.48;6.57;;;7.80;99.90;;;;;;5075311;28;20047;-68
2024/01/22 00:58:13;;;;;;;10.07;5.95;;;7.80;99.90;;;;;;5068553;28;20483;-68
2024/01/22 01:00:38;;;;;;;8.50;5.57;;;7.80;99.90;;;;;;5075495;28;20044;-68
2024/01/22 01:03:05;;;;;;;9.27;6.00;;;7.80;99.90;;;;;;5066658;28;20038;-68
2024/01/22 01:05:31;;;;;;;10.10;5.50;;;7.80;99.90;;;;;;5065689;28;20075;-71
2024/01/22 01:07:56;;;;;;;9.20;5.80;;;7.80;99.90;;;;;;5057530;28;20079;-68
2024/01/22 01:10:22;;;;;;;10.30;6.32;;;7.90;99.90;;;;;;5069140;28;20047;-69
2024/01/22 01:12:48;;;;;;;9.20;6.00;;;7.90;99.90;;;;;;5071697;28;20040;-69
2024/01/22 01:15:13;;;;;;;7.88;5.57;;;7.90;99.90;;;;;;5070585;28;20075;-68
2024/01/22 01:17:39;;;;;;;8.23;5.50;;;8.00;99.90;;;;;;5079280;28;20044;-68
2024/01/22 01:20:05;;;;;;;10.65;6.53;;;8.00;99.90;;;;;;5067521;28;20494;-69
2024/01/22 01:22:32;;;;;;;8.70;5.75;;;8.10;99.90;;;;;;5073930;28;20047;-68
2024/01/22 01:24:57;;;;;;;8.05;5.70;;;8.00;99.90;;;;;;5067401;28;20047;-68
2024/01/22 01:27:23;;;;;;;9.20;5.30;;;8.00;99.90;;;;;;5073786;28;20039;-69
2024/01/22 01:29:49;;;;;;;8.15;5.80;;;8.10;99.90;;;;;;5059156;28;20136;-69
2024/01/22 01:32:15;;;;;;;8.75;5.95;;;8.10;99.90;;;;;;5071463;28;20044;-68
2024/01/22 01:34:40;;;;;;;7.78;5.50;;;8.10;99.90;;;;;;5060121;28;20583;-68
2024/01/22 01:37:06;;;;;;;8.63;5.40;;;8.20;99.90;;;;;;5077838;28;20398;-68
2024/01/22 01:39:32;;;;;;;8.77;5.20;;;8.20;99.90;;;;;;5066032;28;20414;-68
2024/01/22 01:41:57;;;;;;;7.75;5.70;;;8.20;99.90;;;;;;5071477;28;20051;-68
2024/01/22 01:44:49;;;;;;;9.70;5.75;;;8.30;99.90;;;;;;5065998;28;20421;-70
2024/01/22 01:47:15;;;;;;;8.75;5.82;;;8.40;99.90;;;;;;5083266;28;20494;-69
2024/01/22 01:49:42;;;;;;;11.43;6.07;;;8.40;99.90;;;;;;5077823;28;20050;-69
2024/01/22 01:52:10;;;;;;;9.23;6.40;;;8.40;99.90;;;;;;5084180;28;20040;-69
2024/01/22 01:54:42;;;;;;;9.20;6.18;;;8.40;99.90;;;;;;5058390;28;20086;-69
2024/01/22 01:57:08;;;;;;;10.13;6.57;;;8.40;99.90;;;;;;5069912;28;20062;-69
2024/01/22 01:59:35;;;;;;;10.05;6.70;;;8.40;99.90;;;;;;5066256;28;20056;-70
2024/01/22 02:02:00;;;;;;;8.88;5.97;;;8.40;99.90;;;;;;5074694;28;20064;-68
2024/01/22 02:04:26;;;;;;;9.60;6.25;;;8.40;99.90;;;;;;5058356;28;20078;-68
2024/01/22 02:06:52;;;;;;;8.63;6.07;;;8.50;99.90;;;;;;5065863;28;20036;-68
2024/01/22 02:09:18;;;;;;;12.32;7.35;;;8.50;99.90;;;;;;5064130;28;20055;-68
2024/01/22 02:11:43;;;;;;;9.93;6.78;;;8.50;99.90;;;;;;5054303;28;20048;-74
2024/01/22 02:14:09;;;;;;;11.60;6.68;;;8.50;99.90;;;;;;5059138;28;20398;-75
2024/01/22 02:16:35;;;;;;;9.55;6.63;;;8.50;99.90;;;;;;5078746;28;20090;-74
2024/01/22 02:19:00;;;;;;;9.32;6.28;;;8.60;99.90;;;;;;5065000;28;20047;-77
2024/01/22 02:21:26;;;;;;;8.38;6.03;;;8.50;99.90;;;;;;5047653;28;20051;-76
2024/01/22 02:23:52;;;;;;;9.30;6.10;;;8.50;99.90;;;;;;5071408;28;20421;-75
2024/01/22 02:26:18;;;;;;;10.73;7.25;;;8.60;99.90;;;;;;5067107;28;20089;-76
2024/01/22 02:28:43;;;;;;;10.98;6.70;;;8.60;99.90;;;;;;5076628;28;20170;-75
2024/01/22 02:31:10;;;;;;;12.45;7.35;;;8.60;99.90;;;;;;5064705;28;20050;-76
2024/01/22 02:33:36;;;;;;;9.15;6.60;;;8.60;99.90;;;;;;5070425;28;20498;-76
2024/01/22 02:36:01;;;;;;;9.98;6.82;;;8.60;99.90;;;;;;5053075;28;20058;-76
2024/01/22 02:38:27;;;;;;;9.55;6.85;;;8.60;99.90;;;;;;5072131;28;20747;-68
2024/01/22 02:40:56;;;;;;;11.10;6.63;;;8.60;99.90;;;;;;5067749;28;20117;-69
2024/01/22 02:43:22;;;;;;;8.45;5.93;;;8.60;99.90;;;;;;5069712;28;20036;-68
2024/01/22 02:45:49;;;;;;;9.75;6.18;;;8.70;99.90;;;;;;5047551;28;20105;-68
2024/01/22 02:48:15;;;;;;;11.65;6.88;;;8.70;99.90;;;;;;5072992;28;20414;-68
2024/01/22 02:50:41;;;;;;;8.68;6.30;;;8.70;99.90;;;;;;5057245;28;20040;-69
2024/01/22 02:53:06;;;;;;;9.13;5.80;;;8.70;99.90;;;;;;5076923;28;20058;-69
2024/01/22 02:55:36;;;;;;;9.73;6.55;;;8.70;99.90;;;;;;5074446;28;20136;-69
2024/01/22 02:58:01;;;;;;;10.60;6.03;;;8.70;99.90;;;;;;5084960;28;20043;-69
2024/01/22 03:00:27;;;;;;;7.75;5.80;;;8.80;99.90;;;;;;5076166;28;20599;-69
2024/01/22 03:02:53;;;;;;;8.02;5.78;;;8.90;99.90;;;;;;5070207;28;20043;-69
2024/01/22 03:05:19;;;;;;;9.45;5.85;;;8.90;99.90;;;;;;5055649;28;20168;-68
2024/01/22 03:07:45;;;;;;;7.93;6.00;;;8.90;99.90;;;;;;5068564;28;20577;-70
2024/01/22 03:10:10;;;;;;;10.25;6.15;;;8.90;99.90;;;;;;5065078;28;20036;-70
2024/01/22 03:12:36;;;;;;;6.80;5.63;;;8.80;99.90;;;;;;5058881;28;20130;-69
2024/01/22 03:15:02;;;;;;;7.85;5.88;;;8.90;99.90;;;;;;5044915;28;20055;-69
2024/01/22 03:17:28;;;;;;;11.07;6.43;;;8.90;99.90;;;;;;5065038;28;20040;-68
2024/01/22 03:19:54;;;;;;;6.93;5.55;;;8.90;99.90;;;;;;5072890;28;20471;-69
2024/01/22 03:22:19;;;;;;;11.13;6.15;;;8.90;99.90;;;;;;5044588;28;20425;-69
2024/01/22 03:24:46;;;;;;;7.03;5.75;;;8.90;99.90;;;;;;5048790;28;20048;-69
2024/01/22 03:27:12;;;;;;;9.48;6.38;;;8.90;99.90;;;;;;5069754;28;20036;-68
2024/01/22 03:29:39;;;;;;;9.07;6.10;;;8.90;99.90;;;;;;5059977;28;20040;-69
2024/01/22 03:32:07;;;;;;;7.28;5.57;;;8.90;99.90;;;;;;5056124;28;20052;-69
2024/01/22 03:34:33;;;;;;;9.05;5.60;;;8.90;99.90;;;;;;5065636;28;20047;-69
2024/01/22 03:37:00;;;;;;;6.93;5.72;;;8.90;99.90;;;;;;5069625;28;20051;-69
2024/01/22 03:39:26;;;;;;;8.82;5.57;;;8.90;99.90;;;;;;5081561;28;20122;-69
2024/01/22 03:41:51;;;;;;;8.32;6.68;;;8.90;99.90;;;;;;5054051;28;20044;-69
2024/01/22 03:44:17;;;;;;;8.10;6.10;;;8.90;99.90;;;;;;5069082;28;20038;-70
2024/01/22 03:46:43;;;;;;;10.18;5.78;;;8.90;99.90;;;;;;5063281;28;20032;-69
2024/01/22 03:49:09;;;;;;;6.97;5.40;;;8.90;99.90;;;;;;5070891;28;20043;-69
2024/01/22 03:51:35;;;;;;;9.45;5.90;;;8.90;99.90;;;;;;5076699;28;20040;-69
2024/01/22 03:54:00;;;;;;;9.02;6.60;;;8.90;99.90;;;;;;5073595;28;20055;-69
2024/01/22 03:56:29;;;;;;;7.60;5.68;;;8.90;99.90;;;;;;5071329;28;20464;-70
2024/01/22 03:58:55;;;;;;;7.63;5.93;;;8.90;99.90;;;;;;5075411;28;20056;-69
2024/01/22 04:01:21;;;;;;;7.43;5.60;;;8.90;99.90;;;;;;5062478;28;20063;-69
2024/01/22 04:03:47;;;;;;;9.30;5.93;;;8.90;99.90;;;;;;5073584;28;20506;-70
2024/01/22 04:06:13;;;;;;;8.75;6.22;;;8.90;99.90;;;;;;5071756;28;20048;-70
2024/01/22 04:08:38;;;;;;;10.82;6.43;;;9.00;99.90;;;;;;5068462;28;20133;-69
2024/01/22 04:11:04;;;;;;;9.48;5.70;;;9.00;99.90;;;;;;5070838;28;20471;-69
2024/01/22 04:13:30;;;;;;;9.48;6.50;;;9.00;99.90;;;;;;5075072;28;20527;-69
2024/01/22 04:15:56;;;;;;;8.90;5.72;;;9.00;99.90;;;;;;5067293;28;20046;-71
2024/01/22 04:18:21;;;;;;;8.25;6.05;;;9.00;99.90;;;;;;5083798;28;20398;-69
2024/01/22 04:20:47;;;;;;;8.05;5.78;;;9.10;99.90;;;;;;5077042;28;20047;-68
2024/01/22 04:23:13;;;;;;;7.72;5.50;;;9.10;99.90;;;;;;5080468;28;20047;-69
2024/01/22 04:25:39;;;;;;;8.43;6.50;;;9.10;99.90;;;;;;5065097;28;20048;-69
2024/01/22 04:28:04;;;;;;;6.38;5.45;;;9.10;99.90;;;;;;5070319;28;20036;-69
2024/01/22 04:30:31;;;;;;;7.72;6.25;;;9.20;99.90;;;;;;5075379;28;20075;-69
2024/01/22 04:32:57;;;;;;;8.13;6.35;;;9.10;99.90;;;;;;5072574;28;20050;-69
2024/01/22 04:35:23;;;;;;;6.43;5.25;;;9.10;99.90;;;;;;5075294;28;20036;-69
2024/01/22 04:37:48;;;;;;;7.95;5.40;;;9.20;99.90;;;;;;5072203;28;20040;-69
2024/01/22 04:40:15;;;;;;;7.22;5.10;;;9.20;99.90;;;;;;5071663;28;20051;-69
2024/01/22 04:42:41;;;;;;;7.25;5.45;;;9.20;99.90;;;;;;5065437;28;20490;-69
2024/01/22 04:45:10;;;;;;;7.47;5.35;;;9.20;99.90;;;;;;5073737;28;20052;-69
2024/01/22 04:47:37;;;;;;;8.60;5.43;;;9.30;99.90;;;;;;5068683;28;20048;-69
2024/01/22 04:50:04;;;;;;;6.10;4.53;;;9.30;99.90;;;;;;5070374;28;20440;-69
2024/01/22 04:52:30;;;;;;;6.05;4.25;;;9.30;99.90;;;;;;5087997;28;20055;-69
2024/01/22 04:54:58;;;;;;;7.22;4.93;;;9.40;99.90;;;;;;5085611;28;20509;-69
2024/01/22 04:57:24;;;;;;;6.15;4.55;;;9.30;99.90;;;;;;5070700;28;20454;-68
2024/01/22 04:59:50;;;;;;;5.65;4.35;;;9.40;99.90;;;;;;5075409;28;20093;-69
2024/01/22 05:02:19;;;;;;;6.22;4.38;;;9.40;99.90;;;;;;5070204;28;20051;-69
2024/01/22 05:04:45;;;;;;;7.93;4.30;;;9.50;99.90;;;;;;5065397;28;20082;-68
2024/01/22 05:07:11;;;;;;;6.28;4.97;;;9.50;99.90;;;;;;5069303;28;20136;-69
2024/01/22 05:09:36;;;;;;;4.78;3.85;;;9.50;99.90;;;;;;5066108;28;20436;-68
2024/01/22 05:12:02;;;;;;;5.68;4.30;;;9.50;99.90;;;;;;5066755;28;20048;-69
2024/01/22 05:14:31;;;;;;;6.32;4.03;;;9.50;99.90;;;;;;5067471;28;20037;-69
2024/01/22 05:16:57;;;;;;;5.63;4.40;;;9.60;99.90;;;;;;5068044;28;20107;-69
2024/01/22 05:19:23;;;;;;;5.28;4.22;;;9.60;99.90;;;;;;5077689;28;20032;-69
2024/01/22 05:21:48;;;;;;;7.72;4.18;;;9.60;99.90;;;;;;5068505;28;20043;-69
2024/01/22 05:24:14;;;;;;;6.18;3.97;;;9.60;99.90;;;;;;5075261;28;20545;-69
2024/01/22 05:26:40;;;;;;;5.05;4.28;;;9.70;99.90;;;;;;5077696;28;20044;-69
2024/01/22 05:29:06;;;;;;;5.07;4.20;;;9.70;99.90;;;;;;5071459;28;20453;-69
2024/01/22 05:31:31;;;;;;;5.63;3.80;;;9.70;99.90;;;;;;5068257;28;20032;-69
2024/01/22 05:34:01;;;;;;;5.15;3.33;;;9.80;99.90;;;;;;5075694;28;20059;-69
2024/01/22 05:36:27;;;;;;;4.20;3.22;;;9.80;99.90;;;;;;5067989;28;20043;-69
2024/01/22 05:38:52;;;;;;;5.60;3.05;;;9.90;99.90;;;;;;5072696;28;20433;-70
2024/01/22 05:41:18;;;;;;;5.82;3.25;;;10.00;99.90;;;;;;5067098;28;20097;-69
2024/01/22 05:43:44;;;;;;;3.90;2.72;;;10.10;99.90;;;;;;5057277;28;20500;-69
2024/01/22 05:46:09;;;;;;;4.32;2.85;;;10.10;99.90;;;;;;5067278;28;20508;-70
2024/01/22 05:48:35;;;;;;;3.75;2.42;;;10.20;99.90;;;;;;5072673;28;20083;-70
2024/01/22 05:51:01;;;;;;;3.50;1.83;;;10.30;99.90;;;;;;5072874;28;20043;-70
2024/01/22 05:53:27;;;;;;;4.32;2.58;;;10.30;99.90;;;;;;5057570;28;20040;-70
2024/01/22 05:55:52;;;;;;;3.42;1.83;;;10.40;99.90;;;;;;5065479;28;20043;-69
2024/01/22 05:58:18;;;;;;;4.07;1.65;;;10.50;99.90;;;;;;5075900;28;20052;-70
2024/01/22 06:00:44;;;;;;;3.00;1.40;;;10.50;99.90;;;;;;5078767;28;20040;-70
2024/01/22 06:03:10;;;;;;;3.85;1.50;;;10.60;99.90;;;;;;5067246;28;20522;-70
2024/01/22 06:05:36;;;;;;;3.15;1.35;;;10.70;99.90;;;;;;5062629;28;20067;-69
2024/01/22 06:08:04;;;;;;;4.00;1.55;;;10.80;99.90;;;;;;5077178;28;20076;-71
2024/01/22 06:10:30;;;;;;;2.35;1.20;;;10.80;99.90;;;;;;5077331;28;20048;-70
2024/01/22 06:12:58;;;;;;;4.30;1.38;;;10.90;99.90;;;;;;5061734;28;20208;-70
2024/01/22 06:15:24;;;;;;;4.05;1.27;;;10.90;99.90;;;;;;5071046;28;20893;-70
2024/01/22 06:17:50;;;;;;;2.92;1.10;;;10.90;99.90;;;;;;5068287;28;20044;-70
2024/01/22 06:20:16;;;;;;;4.55;1.27;;;11.00;99.90;;;;;;5064965;28;20048;-70
2024/01/22 06:22:41;;;;;;;5.50;1.35;;;11.00;99.90;;;;;;5062210;28;20040;-71
2024/01/22 06:25:10;;;;;;;2.55;1.30;;;11.00;99.90;;;;;;5069153;28;20042;-70
2024/01/22 06:27:36;;;;;;;3.10;1.20;;;11.10;99.90;;;;;;5070513;28;20504;-69
2024/01/22 06:30:03;;;;;;;2.63;1.10;;;11.10;99.90;;;;;;5066695;28;20048;-71
2024/01/22 06:32:29;;;;;;;3.00;1.20;;;11.10;99.90;;;;;;5076074;28;20059;-70
2024/01/22 06:34:57;;;;;;;4.65;1.50;;;11.10;99.90;;;;;;5049668;28;20056;-71
2024/01/22 06:37:26;;;;;;;4.80;1.83;;;11.00;99.90;;;;;;5067945;28;20138;-70
2024/01/22 06:39:52;;;;;;;5.28;1.42;;;11.00;99.90;;;;;;5071250;28;20398;-70
2024/01/22 06:42:18;;;;;;;4.43;1.48;;;10.90;99.90;;;;;;5048780;28;20044;-70
2024/01/22 06:44:44;;;;;;;3.38;1.50;;;11.00;99.90;;;;;;5065717;28;20117;-70
2024/01/22 06:47:10;;;;;;;2.65;1.10;;;10.90;99.90;;;;;;5067945;28;20058;-79
2024/01/22 06:49:36;;;;;;;4.97;1.30;;;10.90;99.90;;;;;;5066421;28;20202;-78
2024/01/22 06:52:02;;;;;;;3.65;1.60;;;11.00;99.90;;;;;;5069361;28;20040;-79
2024/01/22 06:54:27;;;;;;;5.18;1.90;;;11.00;99.90;;;;;;5067755;28;20054;-79
2024/01/22 06:56:53;;;;;;;7.05;2.08;;;11.00;99.90;;;;;;5068701;28;20037;-79
2024/01/22 06:59:23;;;;;;;7.53;2.40;;;11.00;99.90;;;;;;5063217;28;20035;-79
2024/01/22 07:01:49;;;;;;;7.97;2.47;;;10.90;99.90;;;;;;5053480;28;20115;-78
2024/01/22 07:04:14;;;;;;;13.10;3.13;;;10.90;99.90;;;;;;5067212;28;20171;-81
2024/01/22 07:06:40;;;;;;;9.95;3.00;;;10.90;99.90;;;;;;5063829;28;20112;-78
2024/01/22 07:09:06;;;;;;;10.95;3.08;;;10.90;99.90;;;;;;5057260;28;20056;-78
2024/01/22 07:11:32;;;;;;;17.58;4.50;;;10.90;99.90;;;;;;5071430;28;20032;-78
2024/01/22 07:14:00;;;;;;;16.85;3.88;;;10.80;99.90;;;;;;5061145;28;20051;-78
2024/01/22 07:16:26;;;;;;;15.02;4.00;;;10.80;99.90;;;;;;5064253;28;20618;-79
2024/01/22 07:18:52;;;;;;;19.65;4.68;;;10.80;99.90;;;;;;5057974;28;20054;-69
2024/01/22 07:21:18;;;;;;;17.60;4.60;;;10.80;99.90;;;;;;5060351;28;20548;-69
2024/01/22 07:23:44;;;;;;;15.30;4.25;;;10.70;99.90;;;;;;5072531;28;20051;-69
2024/01/22 07:26:09;;;;;;;17.77;5.10;;;10.80;99.90;;;;;;5069740;28;20040;-69
2024/01/22 07:28:35;;;;;;;22.23;4.93;;;10.70;99.90;;;;;;5049230;28;20041;-69
2024/01/22 07:31:01;;;;;;;17.45;5.28;;;10.70;99.90;;;;;;5069774;28;20388;-69
2024/01/22 07:33:27;;;;;;;19.67;4.53;;;10.60;99.90;;;;;;5067970;28;20068;-68
2024/01/22 07:35:53;;;;;;;17.75;4.60;;;10.60;99.90;;;;;;5058165;28;20042;-69
2024/01/22 07:38:18;;;;;;;18.02;4.97;;;10.60;99.90;;;;;;5045255;28;20035;-69
2024/01/22 07:40:44;;;;;;;20.17;5.20;;;10.70;99.90;;;;;;5051134;28;20115;-68
2024/01/22 07:43:10;;;;;;;25.55;5.85;;;10.60;99.90;;;;;;5063706;28;20039;-68
2024/01/22 07:45:36;;;;;;;25.77;6.20;;;10.60;99.90;;;;;;5065166;28;20445;-69
2024/01/22 07:48:01;;;;;;;23.48;5.75;;;10.60;99.90;;;;;;5061190;28;20070;-69
2024/01/22 07:50:27;;;;;;;20.38;5.63;;;10.60;99.90;;;;;;5048252;28;20036;-70
2024/01/22 07:52:54;;;;;;;26.92;6.72;;;10.60;99.90;;;;;;5046538;28;20044;-70
2024/01/22 07:55:19;;;;;;;23.05;6.63;;;10.60;99.90;;;;;;5078835;28;20044;-69
2024/01/22 07:57:45;;;;;;;25.50;6.05;;;10.60;99.90;;;;;;5066801;28;20230;-70
2024/01/22 08:00:11;;;;;;;27.17;6.05;;;10.60;99.90;;;;;;5058954;28;20526;-70
2024/01/22 08:02:39;;;;;;;24.02;6.18;;;10.60;99.90;;;;;;5048938;28;20047;-69
2024/01/22 08:05:06;;;;;;;29.08;7.30;;;10.60;99.90;;;;;;5074049;28;20086;-70
2024/01/22 08:07:32;;;;;;;27.95;6.50;;;10.60;99.90;;;;;;5065969;28;20032;-70
2024/01/22 08:09:58;;;;;;;25.05;6.88;;;10.60;99.90;;;;;;5063573;28;20119;-69
2024/01/22 08:12:24;;;;;;;28.20;6.53;;;10.60;99.90;;;;;;5051859;28;20147;-70
2024/01/22 08:14:49;;;;;;;26.65;7.07;;;10.60;99.90;;;;;;5066258;28;20131;-69
2024/01/22 08:17:16;;;;;;;22.00;6.82;;;10.60;99.90;;;;;;5068059;28;20651;-68
2024/01/22 08:19:42;;;;;;;23.92;6.78;;;10.60;99.90;;;;;;5069685;28;20076;-69
2024/01/22 08:22:07;;;;;;;26.05;7.05;;;10.60;99.90;;;;;;5079486;28;20121;-70
2024/01/22 08:24:33;;;;;;;27.30;6.72;;;10.50;99.90;;;;;;5067438;28;20040;-69
2024/01/22 08:27:03;;;;;;;25.13;6.15;;;10.50;99.90;;;;;;5054327;28;20040;-69
2024/01/22 08:29:29;;;;;;;28.92;7.85;;;10.50;99.90;;;;;;5055321;28;20178;-71
2024/01/22 08:31:54;;;;;;;29.77;8.18;;;10.50;99.90;;;;;;5071343;28;20134;-71
2024/01/22 08:34:20;;;;;;;23.73;6.82;;;10.50;99.90;;;;;;5069944;28;20047;-69
2024/01/22 08:36:46;;;;;;;35.38;8.27;;;10.40;99.90;;;;;;5052672;28;20047;-70
2024/01/22 08:39:12;;;;;;;27.10;8.30;;;10.40;99.90;;;;;;5048483;28;20051;-69
2024/01/22 08:41:38;;;;;;;29.58;8.02;;;10.40;99.90;;;;;;5069829;28;20134;-70
2024/01/22 08:44:05;;;;;;;34.88;9.48;;;10.40;99.90;;;;;;5068236;28;20413;-69
2024/01/22 08:46:34;;;;;;;32.90;8.00;;;10.30;99.90;;;;;;5060106;28;20137;-69
2024/01/22 08:49:00;;;;;;;28.30;5.93;;;10.40;99.90;;;;;;5054462;28;20073;-68
2024/01/22 08:51:26;;;;;;;28.83;7.03;;;10.30;99.90;;;;;;5062243;28;20644;-70
2024/01/22 08:53:51;;;;;;;29.85;7.13;;;10.30;99.90;;;;;;5077131;28;20055;-69
2024/01/22 08:56:17;;;;;;;30.67;7.18;;;10.30;99.90;;;;;;5056300;28;20043;-69
2024/01/22 08:58:43;;;;;;;50.10;10.15;;;10.30;99.90;;;;;;5060499;28;20051;-68
2024/01/22 09:01:09;;;;;;;47.20;10.45;;;10.30;99.90;;;;;;5052914;28;20054;-68
2024/01/22 09:03:35;;;;;;;44.75;9.35;;;10.30;99.90;;;;;;5069397;28;20109;-69
2024/01/22 09:06:02;;;;;;;49.63;10.63;;;10.30;99.90;;;;;;5078071;28;20315;-68
2024/01/22 09:08:29;;;;;;;41.60;10.27;;;10.20;99.90;;;;;;5086091;28;20109;-69
2024/01/22 09:10:54;;;;;;;51.53;10.95;;;10.20;99.90;;;;;;5076629;28;20439;-69
2024/01/22 09:13:20;;;;;;;55.35;10.95;;;10.20;99.90;;;;;;5074419;28;20181;-68
2024/01/22 09:15:46;;;;;;;52.80;10.43;;;10.10;99.90;;;;;;5075344;28;20059;-68
2024/01/22 09:18:12;;;;;;;49.45;10.45;;;10.10;99.90;;;;;;5069970;28;20507;-69
2024/01/22 09:20:38;;;;;;;52.28;10.77;;;10.10;99.90;;;;;;5069138;28;20044;-68
2024/01/22 09:23:04;;;;;;;54.08;11.45;;;10.00;99.90;;;;;;5063460;28;20036;-69
2024/01/22 09:25:30;;;;;;;54.33;10.60;;;10.00;99.90;;;;;;5072853;28;20036;-69
2024/01/22 09:27:55;;;;;;;48.70;10.00;;;9.90;99.90;;;;;;5067767;28;20055;-68
2024/01/22 09:30:21;;;;;;;43.10;10.30;;;9.90;99.90;;;;;;5070518;28;20557;-69
2024/01/22 09:32:47;;;;;;;51.58;10.27;;;9.80;99.90;;;;;;5075982;28;20048;-68
2024/01/22 09:35:14;;;;;;;56.25;11.15;;;9.80;99.90;;;;;;5055355;28;20513;-68
2024/01/22 09:37:40;;;;;;;43.13;9.43;;;9.70;99.90;;;;;;5065257;28;20105;-68
2024/01/22 09:40:11;;;;;;;41.22;9.48;;;9.70;99.90;;;;;;5078288;28;21625;-68
2024/01/22 09:42:39;;;;;;;42.92;10.75;;;9.70;99.90;;;;;;5066947;28;20070;-69
2024/01/22 09:45:08;;;;;;;43.70;9.77;;;9.70;99.90;;;;;;5074519;28;20537;-69
2024/01/22 09:47:37;;;;;;;41.95;9.43;;;9.80;99.90;;;;;;5066132;28;20510;-69
2024/01/22 09:50:04;;;;;;;47.53;10.85;;;9.80;99.90;;;;;;5069018;28;20054;-69
2024/01/22 09:52:33;;;;;;;44.00;9.38;;;9.80;99.90;;;;;;5072818;28;20047;-69
2024/01/22 09:54:59;;;;;;;43.78;10.52;;;9.70;99.90;;;;;;5049975;28;20060;-69
2024/01/22 09:57:28;;;;;;;51.85;10.50;;;9.80;99.90;;;;;;5064624;28;20036;-69
2024/01/22 09:59:56;;;;;;;47.42;9.98;;;9.80;99.90;;;;;;5072261;28;20127;-69
2024/01/22 10:02:22;;;;;;;44.17;10.13;;;9.80;99.90;;;;;;5067208;28;20036;-69
2024/01/22 10:04:48;;;;;;;47.05;10.13;;;9.80;99.90;;;;;;5072625;28;20096;-69
2024/01/22 10:07:15;;;;;;;49.15;11.13;;;9.80;99.90;;;;;;5067224;28;20345;-69
2024/01/22 10:09:42;;;;;;;44.17;10.63;;;9.80;99.90;;;;;;5070792;28;20044;-69
2024/01/22 10:12:08;;;;;;;43.10;10.68;;;9.80;99.90;;;;;;5065025;28;20493;-70
2024/01/22 10:14:35;;;;;;;45.92;10.70;;;9.80;99.90;;;;;;5074367;28;20428;-69
2024/01/22 10:17:20;;;;;;;45.47;10.38;;;9.80;99.90;;;;;;5053148;28;20088;-69
2024/01/22 10:19:49;;;;;;;50.47;11.73;;;9.80;99.90;;;;;;5088785;28;20036;-69
2024/01/22 10:22:19;;;;;;;53.90;12.10;;;9.80;99.90;;;;;;5067579;28;20048;-69
2024/01/22 10:25:05;;;;;;;46.75;12.10;;;9.80;99.90;;;;;;5066805;28;20044;-70
2024/01/22 10:27:32;;;;;;;50.08;12.82;;;9.80;99.90;;;;;;5064799;28;20117;-69
2024/01/22 10:30:09;;;;;;;63.42;13.95;;;9.70;99.90;;;;;;5070142;28;20134;-69
2024/01/22 10:32:35;;;;;;;54.65;13.52;;;9.70;99.90;;;;;;5066948;28;20101;-69
2024/01/22 10:35:02;;;;;;;55.85;13.13;;;9.80;99.90;;;;;;5072796;28;20502;-69
2024/01/22 10:37:27;;;;;;;54.47;12.98;;;9.80;99.90;;;;;;5064271;28;20036;-69
2024/01/22 10:40:01;;;;;;;64.90;13.68;;;9.80;99.90;;;;;;5062772;28;20052;-69
2024/01/22 10:42:27;;;;;;;57.65;13.05;;;9.90;99.90;;;;;;5067192;28;20097;-68
2024/01/22 10:44:53;;;;;;;51.38;11.93;;;9.80;99.90;;;;;;5048011;28;20044;-69
2024/01/22 10:47:19;;;;;;;59.83;13.95;;;9.80;99.90;;;;;;5077079;28;20434;-71
2024/01/22 10:49:46;;;;;;;53.08;12.35;;;9.80;99.90;;;;;;5062891;28;20040;-69
2024/01/22 10:52:13;;;;;;;50.65;12.43;;;9.80;99.90;;;;;;5066406;28;20519;-69
2024/01/22 10:54:39;;;;;;;48.35;12.32;;;9.80;99.90;;;;;;5068216;28;20048;-70
2024/01/22 10:57:31;;;;;;;53.55;11.65;;;9.70;99.90;;;;;;5063766;28;20442;-69
2024/01/22 11:00:02;;;;;;;53.83;12.35;;;9.70;99.90;;;;;;5058901;28;20044;-70
2024/01/22 11:02:34;;;;;;;49.67;11.80;;;9.60;99.90;;;;;;5061162;28;20052;-69
2024/01/22 11:05:14;;;;;;;48.42;12.20;;;9.60;99.90;;;;;;5063765;28;20256;-69
2024/01/22 11:07:41;;;;;;;53.10;13.68;;;9.50;99.90;;;;;;5065429;28;20103;-69
2024/01/22 11:10:11;;;;;;;50.97;12.20;;;9.50;99.90;;;;;;5066249;28;20490;-70
2024/01/22 11:12:48;;;;;;;48.15;11.68;;;9.50;99.90;;;;;;5066639;28;20075;-69
2024/01/22 11:15:14;;;;;;;40.50;9.93;;;9.60;99.90;;;;;;5051237;28;20076;-69
2024/01/22 11:17:43;;;;;;;41.08;9.73;;;9.70;99.90;;;;;;5077653;28;20044;-69
2024/01/22 11:20:16;;;;;;;45.72;11.07;;;9.70;99.90;;;;;;5048042;28;20055;-69
2024/01/22 11:22:41;;;;;;;46.42;10.85;;;9.70;99.90;;;;;;5062675;28;20105;-69
2024/01/22 11:25:13;;;;;;;45.38;10.98;;;9.70;99.90;;;;;;5068096;28;20043;-69
2024/01/22 11:27:40;;;;;;;39.78;9.65;;;9.80;99.90;;;;;;5047923;28;20040;-70
2024/01/22 11:30:21;;;;;;;38.38;10.25;;;9.70;99.90;;;;;;5069873;28;20079;-70
2024/01/22 11:32:48;;;;;;;47.95;10.02;;;9.80;99.90;;;;;;5071229;28;20109;-69
2024/01/22 11:35:32;;;;;;;40.58;10.38;;;9.80;99.90;;;;;;5074184;28;20040;-69
2024/01/22 11:37:57;;;;;;;40.05;9.75;;;9.80;99.90;;;;;;5067673;28;20130;-70
2024/01/22 11:40:53;;;;;;;45.47;10.20;;;9.80;99.90;;;;;;5052764;28;20546;-70
2024/01/22 11:43:23;;;;;;;40.05;9.57;;;9.90;99.90;;;;;;5063972;28;20047;-70
2024/01/22 11:45:56;;;;;;;37.08;9.48;;;9.90;99.90;;;;;;5063980;28;20043;-70
2024/01/22 11:48:23;;;;;;;32.85;8.30;;;9.90;99.90;;;;;;5050725;28;20110;-70
2024/01/22 11:50:59;;;;;;;34.58;8.55;;;10.00;99.90;;;;;;5064384;28;20036;-69
2024/01/22 11:53:26;;;;;;;30.20;7.82;;;10.00;99.90;;;;;;5046956;28;20055;-70
2024/01/22 11:56:04;;;;;;;29.25;7.72;;;10.00;99.90;;;;;;5067475;28;20044;-70
2024/01/22 11:58:32;;;;;;;32.30;8.50;;;10.00;99.90;;;;;;5070153;28;20529;-71
2024/01/22 12:01:00;;;;;;;35.83;8.75;;;10.10;99.90;;;;;;5052962;28;20040;-70
2024/01/22 12:03:29;;;;;;;31.33;8.07;;;10.10;99.90;;;;;;5058101;28;20048;-70
2024/01/22 12:06:01;;;;;;;32.28;8.27;;;10.10;99.90;;;;;;5061353;28;20058;-70
2024/01/22 12:08:27;;;;;;;30.67;7.38;;;10.20;99.90;;;;;;5071508;28;20068;-70
2024/01/22 12:11:11;;;;;;;33.70;8.73;;;10.10;99.90;;;;;;5066956;28;20083;-70
2024/01/22 12:13:37;;;;;;;28.52;7.00;;;10.20;99.90;;;;;;5073316;28;20051;-70
2024/01/22 12:16:03;;;;;;;25.48;6.70;;;10.20;99.90;;;;;;5070503;28;20037;-70
2024/01/22 12:18:29;;;;;;;35.50;8.05;;;10.10;99.90;;;;;;5051318;28;20128;-69
2024/01/22 12:20:58;;;;;;;28.25;6.72;;;10.10;99.90;;;;;;5064836;28;20169;-72
2024/01/22 12:23:32;;;;;;;22.67;5.82;;;10.10;99.90;;;;;;5071657;28;20044;-70
2024/01/22 12:25:59;;;;;;;27.05;6.68;;;10.00;99.90;;;;;;5067331;28;20055;-69
2024/01/22 12:28:28;;;;;;;26.08;7.03;;;10.00;99.90;;;;;;5045805;28;20432;-70
2024/01/22 12:30:59;;;;;;;26.85;6.63;;;10.00;99.90;;;;;;5067336;28;20052;-69
2024/01/22 12:33:26;;;;;;;23.33;5.95;;;9.90;99.90;;;;;;5069412;28;20059;-69
2024/01/22 12:36:13;;;;;;;23.65;5.28;;;9.90;99.90;;;;;;5066330;28;20082;-70
2024/01/22 12:38:50;;;;;;;26.77;5.88;;;9.90;99.90;;;;;;5068858;28;20039;-69
2024/01/22 12:41:18;;;;;;;20.88;4.88;;;9.90;99.90;;;;;;5065953;28;20224;-69
2024/01/22 12:43:44;;;;;;;23.10;5.78;;;9.90;99.90;;;;;;5070253;28;20046;-70
2024/01/22 12:46:16;;;;;;;19.20;6.03;;;9.90;99.90;;;;;;5073960;28;20138;-70